Meteo Giornale » Osservazioni meteo Stati Uniti (USA) » Marco Island
ore: 20:56 - Osservazioni Meteo Marco Island
Lat. 26° 0' N Lon. 81° 40' W Alt. 2 metri s.l.m.
26 °C
Sereno
Temp. 24 Ore
24 °C
34 °C
Nord/Nord-Est
7.4 Km/h
Dew point 24 °C
Umidità 88 %
Visibilità 10 Km
Il sole sorge alle ore 07:06
Il sole tramonta alle ore 19:47
| Data e Ora | Cielo e Fenomeni | T °C | DP °C | Um. % | Pres. hPa | Vis. km | Vento km/h | |
|---|---|---|---|---|---|---|---|---|
| Oggi h: 20:56 | Sereno | 26 | 24 | 88 | 1016 | 10 | N/NE 7.4 | |
| Oggi h: 19:56 | Sereno | 26 | 24 | 88 | 1016 | 10 | N 7.4 | |
| Oggi h: 18:56 | Molto Nuvoloso | 26 | 24 | 88 | 1015 | 10 | NE 11.1 | |
| Oggi h: 18:08 | Molto Nuvoloso | 29 | 24 | 74 | 1016 | 10 | NE 13 | |
| Oggi h: 17:56 | Poco Nuvoloso | 31 | 25 | 70 | 1015 | 10 | NE 9.3 | |
| Oggi h: 17:13 | Poco Nuvoloso | 31 | 23 | 62 | 1015 | 10 | N 0 | |
| Oggi h: 16:56 | Temporale nelle vicinanze | 31 | 23 | 62 | 1015 | 10 | N 0 | |
| Oggi h: 16:41 | Molto Nuvoloso | 31 | 23 | 62 | 1015 | 10 | N 0 | |
| Oggi h: 16:29 | Molto Nuvoloso | 30 | 23 | 66 | 1015 | 10 | E/NE 7.4 | |
| Oggi h: 15:56 | Temporale nelle vicinanze | 33 | 25 | 62 | 1015 | 10 | N 5.5 | |
| Oggi h: 15:29 | Sereno | 33 | 25 | 62 | 1015 | 10 | SO 18.5 | |
| Oggi h: 15:11 | Temporale nelle vicinanze | 34 | 25 | 59 | 1015 | 10 | SO 13 | |
| Oggi h: 14:56 | Poco Nuvoloso | 34 | 25 | 59 | 1015 | 10 | O/SO 11.1 | |
| Oggi h: 13:56 | Molto Nuvoloso | 33 | 24 | 59 | 1016 | 10 | O 9.3 | |
| Oggi h: 12:56 | Molto Nuvoloso | 32 | 24 | 62 | 1017 | 10 | SO 11.1 | |
| Oggi h: 11:56 | Molto Nuvoloso | 32 | 24 | 62 | 1017 | 10 | N 5.5 | |
| Oggi h: 11:34 | Molto Nuvoloso | 32 | 24 | 62 | 1017 | 10 | N 7.4 | |
| Oggi h: 11:04 | Molto Nuvoloso | 32 | 24 | 62 | 1017 | 10 | E/SE 7.4 | |
| Oggi h: 10:56 | Nuvoloso | 32 | 24 | 62 | 1017 | 10 | N 0 | |
| Oggi h: 09:56 | Sereno | 29 | 25 | 79 | 1017 | 10 | N 7.4 | |
| Oggi h: 08:56 | Sereno | 27 | 24 | 83 | 1017 | 10 | E 9.3 | |
| Oggi h: 07:56 | Sereno | 24 | 23 | 94 | 1016 | 10 | N 5.5 | |
| Oggi h: 06:56 | Sereno | 24 | 23 | 94 | 1016 | 10 | N 5.5 | |
| Oggi h: 05:56 | Sereno | 24 | 23 | 94 | 1015 | 10 | N/NE 7.4 | |
| Oggi h: 04:56 | Sereno | 24 | 23 | 94 | 1015 | 10 | N/NE 7.4 | |
| Oggi h: 03:56 | Sereno | 24 | 23 | 94 | 1015 | 10 | N/NE 7.4 | |
| Oggi h: 02:56 | Sereno | 24 | 23 | 94 | 1016 | 10 | N/NE 7.4 | |
| Oggi h: 01:56 | Sereno | 24 | 24 | 100 | 1016 | 10 | NE 9.3 | |
| Oggi h: 00:56 | Sereno | 25 | 24 | 94 | 1017 | 10 | N 5.5 | |
| Ieri h: 23:56 | Sereno | 25 | 24 | 94 | 1017 | 10 | N 0 | |
| Ieri h: 22:56 | Sereno | 26 | 24 | 88 | 1017 | 10 | N 5.5 | |
| Ieri h: 21:56 | Sereno | 26 | 24 | 88 | 1017 | 10 | NE 7.4 | |



